sensor_id;sensor_type;location;lat;lon;timestamp;pressure;altitude;pressure_sealevel;temperature;humidity
33625;BME280;19962;47.820;1.930;2024-01-10T00:01:17;101323.00;;;3.00;66.79
33625;BME280;19962;47.820;1.930;2024-01-10T00:03:43;101317.59;;;3.00;67.00
33625;BME280;19962;47.820;1.930;2024-01-10T00:06:10;101316.63;;;3.09;66.78
33625;BME280;19962;47.820;1.930;2024-01-10T00:08:37;101318.63;;;3.07;66.84
33625;BME280;19962;47.820;1.930;2024-01-10T00:11:03;101309.69;;;3.15;66.75
33625;BME280;19962;47.820;1.930;2024-01-10T00:13:33;101305.09;;;3.15;66.50
33625;BME280;19962;47.820;1.930;2024-01-10T00:15:59;101316.94;;;3.06;66.69
33625;BME280;19962;47.820;1.930;2024-01-10T00:18:25;101317.94;;;3.05;66.94
33625;BME280;19962;47.820;1.930;2024-01-10T00:20:52;101307.78;;;3.07;66.79
33625;BME280;19962;47.820;1.930;2024-01-10T00:23:21;101313.91;;;3.09;66.88
33625;BME280;19962;47.820;1.930;2024-01-10T00:25:48;101314.22;;;3.06;66.91
33625;BME280;19962;47.820;1.930;2024-01-10T00:28:14;101311.13;;;2.93;67.34
33625;BME280;19962;47.820;1.930;2024-01-10T00:30:45;101307.41;;;2.94;67.55
33625;BME280;19962;47.820;1.930;2024-01-10T00:33:13;101308.63;;;3.08;67.10
33625;BME280;19962;47.820;1.930;2024-01-10T00:35:40;101302.03;;;3.10;67.00
33625;BME280;19962;47.820;1.930;2024-01-10T00:38:06;101307.78;;;3.07;67.17
33625;BME280;19962;47.820;1.930;2024-01-10T00:40:32;101304.59;;;3.12;66.95
33625;BME280;19962;47.820;1.930;2024-01-10T00:42:58;101311.53;;;3.14;66.99
33625;BME280;19962;47.820;1.930;2024-01-10T00:45:24;101300.50;;;3.08;66.93
33625;BME280;19962;47.820;1.930;2024-01-10T00:47:50;101304.72;;;3.02;67.35
33625;BME280;19962;47.820;1.930;2024-01-10T00:50:17;101302.91;;;3.11;67.04
33625;BME280;19962;47.820;1.930;2024-01-10T00:52:44;101299.16;;;3.12;66.86
33625;BME280;19962;47.820;1.930;2024-01-10T00:55:10;101304.78;;;3.18;66.98
33625;BME280;19962;47.820;1.930;2024-01-10T00:57:36;101300.72;;;3.22;67.00
33625;BME280;19962;47.820;1.930;2024-01-10T01:00:05;101299.34;;;3.18;66.74
33625;BME280;19962;47.820;1.930;2024-01-10T01:02:31;101302.38;;;3.15;66.95
33625;BME280;19962;47.820;1.930;2024-01-10T01:04:58;101291.50;;;3.07;67.03
33625;BME280;19962;47.820;1.930;2024-01-10T01:07:24;101292.53;;;3.06;67.25
33625;BME280;19962;47.820;1.930;2024-01-10T01:09:50;101291.22;;;3.18;67.04
33625;BME280;19962;47.820;1.930;2024-01-10T01:12:16;101297.31;;;3.20;66.96
33625;BME280;19962;47.820;1.930;2024-01-10T01:14:42;101297.00;;;3.23;66.71
33625;BME280;19962;47.820;1.930;2024-01-10T01:17:09;101287.53;;;3.27;66.72
33625;BME280;19962;47.820;1.930;2024-01-10T01:19:35;101290.19;;;3.19;66.88
33625;BME280;19962;47.820;1.930;2024-01-10T01:22:01;101292.75;;;3.21;66.97
33625;BME280;19962;47.820;1.930;2024-01-10T01:24:27;101285.09;;;3.16;66.79
33625;BME280;19962;47.820;1.930;2024-01-10T01:26:53;101294.78;;;3.19;66.87
33625;BME280;19962;47.820;1.930;2024-01-10T01:29:20;101287.47;;;3.03;67.04
33625;BME280;19962;47.820;1.930;2024-01-10T01:31:46;101284.75;;;3.03;67.09
33625;BME280;19962;47.820;1.930;2024-01-10T01:34:13;101292.38;;;3.08;67.24
33625;BME280;19962;47.820;1.930;2024-01-10T01:36:39;101287.31;;;3.13;67.08
33625;BME280;19962;47.820;1.930;2024-01-10T01:39:05;101291.50;;;3.07;67.50
33625;BME280;19962;47.820;1.930;2024-01-10T01:41:31;101289.16;;;3.04;67.48
33625;BME280;19962;47.820;1.930;2024-01-10T01:43:57;101291.16;;;3.02;67.48
33625;BME280;19962;47.820;1.930;2024-01-10T01:46:24;101287.06;;;2.98;67.73
33625;BME280;19962;47.820;1.930;2024-01-10T01:48:50;101281.66;;;2.98;67.81
33625;BME280;19962;47.820;1.930;2024-01-10T01:51:19;101282.00;;;2.95;68.04
33625;BME280;19962;47.820;1.930;2024-01-10T01:53:48;101281.03;;;3.04;67.87
33625;BME280;19962;47.820;1.930;2024-01-10T01:56:16;101286.47;;;3.12;67.83
33625;BME280;19962;47.820;1.930;2024-01-10T01:58:43;101285.09;;;3.08;67.70
33625;BME280;19962;47.820;1.930;2024-01-10T02:01:12;101285.44;;;3.13;67.78
33625;BME280;19962;47.820;1.930;2024-01-10T02:03:38;101286.47;;;3.20;67.67
33625;BME280;19962;47.820;1.930;2024-01-10T02:06:04;101285.13;;;3.24;67.38
33625;BME280;19962;47.820;1.930;2024-01-10T02:08:32;101287.50;;;3.19;67.56
33625;BME280;19962;47.820;1.930;2024-01-10T02:11:00;101289.38;;;3.19;67.69
33625;BME280;19962;47.820;1.930;2024-01-10T02:13:27;101284.47;;;3.22;67.36
33625;BME280;19962;47.820;1.930;2024-01-10T02:15:53;101290.19;;;3.19;67.42
33625;BME280;19962;47.820;1.930;2024-01-10T02:18:20;101281.41;;;3.17;67.84
33625;BME280;19962;47.820;1.930;2024-01-10T02:20:46;101293.59;;;3.13;68.04
33625;BME280;19962;47.820;1.930;2024-01-10T02:23:12;101289.53;;;3.17;68.00
33625;BME280;19962;47.820;1.930;2024-01-10T02:25:40;101280.88;;;3.22;67.50
33625;BME280;19962;47.820;1.930;2024-01-10T02:28:06;101281.91;;;3.21;67.57
33625;BME280;19962;47.820;1.930;2024-01-10T02:30:33;101285.44;;;3.13;67.89
33625;BME280;19962;47.820;1.930;2024-01-10T02:32:59;101286.28;;;3.14;67.79
33625;BME280;19962;47.820;1.930;2024-01-10T02:35:25;101277.44;;;3.04;68.16
33625;BME280;19962;47.820;1.930;2024-01-10T02:37:52;101280.50;;;3.09;68.34
33625;BME280;19962;47.820;1.930;2024-01-10T02:40:22;101278.66;;;3.09;68.23
33625;BME280;19962;47.820;1.930;2024-01-10T02:42:48;101278.34;;;3.12;68.17
33625;BME280;19962;47.820;1.930;2024-01-10T02:45:17;101273.94;;;3.19;67.91
33625;BME280;19962;47.820;1.930;2024-01-10T02:47:43;101274.59;;;3.13;67.77
33625;BME280;19962;47.820;1.930;2024-01-10T02:50:10;101273.56;;;3.06;68.12
33625;BME280;19962;47.820;1.930;2024-01-10T02:52:36;101277.63;;;3.10;68.32
33625;BME280;19962;47.820;1.930;2024-01-10T02:55:02;101271.72;;;3.23;68.08
33625;BME280;19962;47.820;1.930;2024-01-10T02:57:28;101268.53;;;3.27;67.71
33625;BME280;19962;47.820;1.930;2024-01-10T02:59:55;101272.28;;;3.34;67.51
33625;BME280;19962;47.820;1.930;2024-01-10T03:02:21;101264.81;;;3.36;67.35
33625;BME280;19962;47.820;1.930;2024-01-10T03:04:49;101273.63;;;3.22;67.65
33625;BME280;19962;47.820;1.930;2024-01-10T03:07:15;101266.44;;;3.05;68.12
33625;BME280;19962;47.820;1.930;2024-01-10T03:09:41;101267.84;;;3.17;68.03
33625;BME280;19962;47.820;1.930;2024-01-10T03:12:07;101270.19;;;3.04;68.08
33625;BME280;19962;47.820;1.930;2024-01-10T03:14:34;101270.84;;;3.06;68.15
33625;BME280;19962;47.820;1.930;2024-01-10T03:17:00;101266.47;;;3.13;67.88
33625;BME280;19962;47.820;1.930;2024-01-10T03:19:26;101270.38;;;3.11;67.84
33625;BME280;19962;47.820;1.930;2024-01-10T03:21:52;101271.91;;;3.13;68.03
33625;BME280;19962;47.820;1.930;2024-01-10T03:24:18;101268.16;;;3.14;67.77
33625;BME280;19962;47.820;1.930;2024-01-10T03:26:44;101271.38;;;3.10;68.19
33625;BME280;19962;47.820;1.930;2024-01-10T03:29:11;101268.31;;;3.13;68.23
33625;BME280;19962;47.820;1.930;2024-01-10T03:31:37;101258.66;;;3.10;68.24
33625;BME280;19962;47.820;1.930;2024-01-10T03:34:04;101263.06;;;3.03;68.40
33625;BME280;19962;47.820;1.930;2024-01-10T03:36:30;101254.75;;;3.05;68.45
33625;BME280;19962;47.820;1.930;2024-01-10T03:38:56;101255.13;;;3.10;68.52
33625;BME280;19962;47.820;1.930;2024-01-10T03:41:22;101258.66;;;3.10;68.35
33625;BME280;19962;47.820;1.930;2024-01-10T03:43:48;101249.34;;;3.13;68.15
33625;BME280;19962;47.820;1.930;2024-01-10T03:46:15;101249.00;;;3.08;68.45
33625;BME280;19962;47.820;1.930;2024-01-10T03:48:41;101253.75;;;3.14;68.18
33625;BME280;19962;47.820;1.930;2024-01-10T03:51:15;101259.00;;;3.15;68.18
33625;BME280;19962;47.820;1.930;2024-01-10T03:53:41;101256.81;;;3.11;68.30
33625;BME280;19962;47.820;1.930;2024-01-10T03:56:08;101253.06;;;3.12;68.57
33625;BME280;19962;47.820;1.930;2024-01-10T03:58:34;101255.28;;;3.16;68.46
33625;BME280;19962;47.820;1.930;2024-01-10T04:01:03;101255.13;;;3.18;68.32
33625;BME280;19962;47.820;1.930;2024-01-10T04:03:29;101254.75;;;3.05;68.01
33625;BME280;19962;47.820;1.930;2024-01-10T04:05:55;101252.03;;;2.97;68.79
33625;BME280;19962;47.820;1.930;2024-01-10T04:08:22;101253.72;;;2.98;68.81
33625;BME280;19962;47.820;1.930;2024-01-10T04:10:48;101259.97;;;2.90;69.03
33625;BME280;19962;47.820;1.930;2024-01-10T04:13:14;101250.31;;;2.88;69.12
33625;BME280;19962;47.820;1.930;2024-01-10T04:15:40;101254.19;;;2.93;68.90
33625;BME280;19962;47.820;1.930;2024-01-10T04:18:06;101250.50;;;2.94;69.00
33625;BME280;19962;47.820;1.930;2024-01-10T04:20:33;101249.63;;;2.94;69.17
33625;BME280;19962;47.820;1.930;2024-01-10T04:22:59;101258.25;;;2.89;69.22
33625;BME280;19962;47.820;1.930;2024-01-10T04:25:25;101259.63;;;2.93;69.13
33625;BME280;19962;47.820;1.930;2024-01-10T04:27:51;101251.16;;;2.96;69.20
33625;BME280;19962;47.820;1.930;2024-01-10T04:30:17;101249.13;;;2.98;68.93
33625;BME280;19962;47.820;1.930;2024-01-10T04:32:43;101245.75;;;2.96;69.06
33625;BME280;19962;47.820;1.930;2024-01-10T04:35:09;101238.78;;;2.94;68.59
33625;BME280;19962;47.820;1.930;2024-01-10T04:37:36;101244.22;;;2.94;69.21
33625;BME280;19962;47.820;1.930;2024-01-10T04:40:02;101247.94;;;3.01;68.85
33625;BME280;19962;47.820;1.930;2024-01-10T04:42:28;101245.81;;;3.12;68.78
33625;BME280;19962;47.820;1.930;2024-01-10T04:44:54;101243.44;;;3.17;68.70
33625;BME280;19962;47.820;1.930;2024-01-10T04:47:20;101247.84;;;3.18;68.55
33625;BME280;19962;47.820;1.930;2024-01-10T04:49:46;101250.22;;;3.13;68.50
33625;BME280;19962;47.820;1.930;2024-01-10T04:52:12;101247.81;;;3.10;68.74
33625;BME280;19962;47.820;1.930;2024-01-10T04:54:39;101246.78;;;3.11;68.82
33625;BME280;19962;47.820;1.930;2024-01-10T04:57:05;101249.00;;;3.08;68.92
33625;BME280;19962;47.820;1.930;2024-01-10T04:59:31;101246.63;;;3.13;68.82
33625;BME280;19962;47.820;1.930;2024-01-10T05:01:57;101242.09;;;3.21;68.58
33625;BME280;19962;47.820;1.930;2024-01-10T05:04:23;101240.72;;;3.17;68.71
33625;BME280;19962;47.820;1.930;2024-01-10T05:06:49;101238.47;;;3.05;69.00
33625;BME280;19962;47.820;1.930;2024-01-10T05:09:16;101242.03;;;3.05;69.00
33625;BME280;19962;47.820;1.930;2024-01-10T05:11:42;101243.91;;;3.05;69.33
33625;BME280;19962;47.820;1.930;2024-01-10T05:14:09;101245.06;;;3.02;69.05
33625;BME280;19962;47.820;1.930;2024-01-10T05:16:35;101252.72;;;3.07;69.17
33625;BME280;19962;47.820;1.930;2024-01-10T05:19:01;101249.03;;;3.16;68.82
33625;BME280;19962;47.820;1.930;2024-01-10T05:21:31;101253.59;;;3.15;68.66
33625;BME280;19962;47.820;1.930;2024-01-10T05:23:58;101253.59;;;3.15;68.83
33625;BME280;19962;47.820;1.930;2024-01-10T05:26:24;101261.41;;;3.18;68.61
33625;BME280;19962;47.820;1.930;2024-01-10T05:28:50;101252.22;;;3.03;68.91
33625;BME280;19962;47.820;1.930;2024-01-10T05:31:16;101254.41;;;3.08;68.95
33625;BME280;19962;47.820;1.930;2024-01-10T05:33:43;101260.16;;;3.05;69.05
33625;BME280;19962;47.820;1.930;2024-01-10T05:36:09;101250.19;;;3.05;69.04
33625;BME280;19962;47.820;1.930;2024-01-10T05:38:38;101253.22;;;2.94;69.24
33625;BME280;19962;47.820;1.930;2024-01-10T05:41:06;101242.22;;;3.04;69.07
33625;BME280;19962;47.820;1.930;2024-01-10T05:43:32;101246.59;;;3.05;68.85
33625;BME280;19962;47.820;1.930;2024-01-10T05:45:59;101243.25;;;3.11;68.66
33625;BME280;19962;47.820;1.930;2024-01-10T05:48:25;101244.09;;;3.03;69.22
33625;BME280;19962;47.820;1.930;2024-01-10T05:50:51;101240.69;;;3.01;69.22
33625;BME280;19962;47.820;1.930;2024-01-10T05:53:17;101240.69;;;3.01;68.95
33625;BME280;19962;47.820;1.930;2024-01-10T05:55:46;101234.78;;;3.06;69.22
33625;BME280;19962;47.820;1.930;2024-01-10T05:58:12;101232.22;;;3.04;69.03
33625;BME280;19962;47.820;1.930;2024-01-10T06:00:38;101228.31;;;2.99;69.15
33625;BME280;19962;47.820;1.930;2024-01-10T06:03:05;101239.16;;;2.99;69.17
33625;BME280;19962;47.820;1.930;2024-01-10T06:05:31;101245.44;;;2.99;69.36
33625;BME280;19962;47.820;1.930;2024-01-10T06:07:57;101236.94;;;3.02;69.02
33625;BME280;19962;47.820;1.930;2024-01-10T06:10:24;101235.94;;;2.95;69.21
33625;BME280;19962;47.820;1.930;2024-01-10T06:12:50;101234.75;;;2.98;69.24
33625;BME280;19962;47.820;1.930;2024-01-10T06:15:16;101240.69;;;3.01;69.24
33625;BME280;19962;47.820;1.930;2024-01-10T06:17:42;101236.47;;;3.07;68.92
33625;BME280;19962;47.820;1.930;2024-01-10T06:20:09;101240.38;;;3.12;68.73
33625;BME280;19962;47.820;1.930;2024-01-10T06:22:35;101237.84;;;3.11;68.69
33625;BME280;19962;47.820;1.930;2024-01-10T06:25:02;101236.47;;;3.23;68.50
33625;BME280;19962;47.820;1.930;2024-01-10T06:27:28;101232.91;;;3.14;68.60
33625;BME280;19962;47.820;1.930;2024-01-10T06:29:56;101238.59;;;2.87;68.68
33625;BME280;19962;47.820;1.930;2024-01-10T06:32:22;101237.94;;;2.93;69.17
33625;BME280;19962;47.820;1.930;2024-01-10T06:34:48;101234.94;;;3.04;68.88
33625;BME280;19962;47.820;1.930;2024-01-10T06:37:14;101230.88;;;3.16;68.72
33625;BME280;19962;47.820;1.930;2024-01-10T06:39:41;101236.28;;;3.16;68.52
33625;BME280;19962;47.820;1.930;2024-01-10T06:42:07;101233.97;;;3.21;68.27
33625;BME280;19962;47.820;1.930;2024-01-10T06:44:36;101228.31;;;2.99;68.70
33625;BME280;19962;47.820;1.930;2024-01-10T06:47:03;101236.44;;;2.99;69.07
33625;BME280;19962;47.820;1.930;2024-01-10T06:49:29;101234.41;;;3.01;69.14
33625;BME280;19962;47.820;1.930;2024-01-10T06:51:56;101233.25;;;3.11;68.72
33625;BME280;19962;47.820;1.930;2024-01-10T06:54:22;101241.72;;;3.16;68.51
33625;BME280;19962;47.820;1.930;2024-01-10T06:56:48;101231.56;;;3.18;68.58
33625;BME280;19962;47.820;1.930;2024-01-10T06:59:14;101235.25;;;3.01;68.71
33625;BME280;19962;47.820;1.930;2024-01-10T07:01:40;101241.06;;;3.14;68.76
33625;BME280;19962;47.820;1.930;2024-01-10T07:04:06;101229.53;;;3.12;68.54
33625;BME280;19962;47.820;1.930;2024-01-10T07:06:32;101242.41;;;3.10;68.63
33625;BME280;19962;47.820;1.930;2024-01-10T07:08:58;101231.88;;;3.07;68.62
33625;BME280;19962;47.820;1.930;2024-01-10T07:11:24;101245.44;;;3.07;68.69
33625;BME280;19962;47.820;1.930;2024-01-10T07:13:54;101239.31;;;2.97;68.94
33625;BME280;19962;47.820;1.930;2024-01-10T07:16:20;101250.50;;;2.94;69.00
33625;BME280;19962;47.820;1.930;2024-01-10T07:18:46;101248.28;;;2.98;69.12
33625;BME280;19962;47.820;1.930;2024-01-10T07:21:14;101250.13;;;2.89;69.18
33625;BME280;19962;47.820;1.930;2024-01-10T07:23:40;101248.13;;;2.99;69.05
33625;BME280;19962;47.820;1.930;2024-01-10T07:26:08;101240.31;;;2.96;69.28
33625;BME280;19962;47.820;1.930;2024-01-10T07:28:34;101244.75;;;3.05;68.64
33625;BME280;19962;47.820;1.930;2024-01-10T07:31:00;101245.94;;;3.03;68.68
33625;BME280;19962;47.820;1.930;2024-01-10T07:33:28;101250.50;;;3.02;68.87
33625;BME280;19962;47.820;1.930;2024-01-10T07:35:57;101247.13;;;3.00;69.21
33625;BME280;19962;47.820;1.930;2024-01-10T07:38:23;101243.56;;;3.08;69.13
33625;BME280;19962;47.820;1.930;2024-01-10T07:40:49;101247.66;;;3.12;69.05
33625;BME280;19962;47.820;1.930;2024-01-10T07:43:15;101244.94;;;3.12;68.80
33625;BME280;19962;47.820;1.930;2024-01-10T07:45:41;101248.66;;;3.03;69.11
33625;BME280;19962;47.820;1.930;2024-01-10T07:48:08;101251.03;;;3.06;69.09
33625;BME280;19962;47.820;1.930;2024-01-10T07:50:34;101241.53;;;3.02;69.06
33625;BME280;19962;47.820;1.930;2024-01-10T07:53:00;101246.78;;;3.03;69.29
33625;BME280;19962;47.820;1.930;2024-01-10T07:55:27;101243.75;;;3.14;68.96
33625;BME280;19962;47.820;1.930;2024-01-10T07:57:55;101249.19;;;3.14;68.59
33625;BME280;19962;47.820;1.930;2024-01-10T08:00:21;101252.41;;;3.18;68.24
33625;BME280;19962;47.820;1.930;2024-01-10T08:02:48;101252.41;;;3.10;68.87
33625;BME280;19962;47.820;1.930;2024-01-10T08:05:16;101263.06;;;3.11;68.49
33625;BME280;19962;47.820;1.930;2024-01-10T08:07:42;101256.28;;;3.07;68.78
33625;BME280;19962;47.820;1.930;2024-01-10T08:10:09;101253.25;;;3.10;68.69
33625;BME280;19962;47.820;1.930;2024-01-10T08:12:39;101258.78;;;3.01;69.21
33625;BME280;19962;47.820;1.930;2024-01-10T08:15:05;101259.34;;;3.04;69.28
33625;BME280;19962;47.820;1.930;2024-01-10T08:17:32;101269.47;;;3.02;69.17
33625;BME280;19962;47.820;1.930;2024-01-10T08:19:59;101262.53;;;3.00;69.07
33625;BME280;19962;47.820;1.930;2024-01-10T08:22:26;101266.38;;;2.89;69.28
33625;BME280;19962;47.820;1.930;2024-01-10T08:24:52;101268.44;;;2.95;69.35
33625;BME280;19962;47.820;1.930;2024-01-10T08:27:18;101266.41;;;2.97;69.06
33625;BME280;19962;47.820;1.930;2024-01-10T08:29:44;101267.94;;;3.00;69.18
33625;BME280;19962;47.820;1.930;2024-01-10T08:32:11;101271.19;;;3.03;69.37
33625;BME280;19962;47.820;1.930;2024-01-10T08:34:37;101272.38;;;3.09;69.15
33625;BME280;19962;47.820;1.930;2024-01-10T08:37:03;101272.19;;;3.02;69.12
33625;BME280;19962;47.820;1.930;2024-01-10T08:39:29;101269.47;;;3.02;69.18
33625;BME280;19962;47.820;1.930;2024-01-10T08:41:57;101279.31;;;3.11;69.06
33625;BME280;19962;47.820;1.930;2024-01-10T08:44:23;101276.81;;;3.18;68.93
33625;BME280;19962;47.820;1.930;2024-01-10T08:46:50;101282.38;;;3.16;68.91
33625;BME280;19962;47.820;1.930;2024-01-10T08:49:19;101284.44;;;3.14;68.92
33625;BME280;19962;47.820;1.930;2024-01-10T08:51:45;101275.63;;;3.20;68.87
33625;BME280;19962;47.820;1.930;2024-01-10T08:54:12;101282.09;;;3.27;68.83
33625;BME280;19962;47.820;1.930;2024-01-10T08:56:43;101275.00;;;3.34;68.56
33625;BME280;19962;47.820;1.930;2024-01-10T08:59:11;101283.31;;;3.33;68.27
33625;BME280;19962;47.820;1.930;2024-01-10T09:01:38;101284.97;;;3.26;68.50
33625;BME280;19962;47.820;1.930;2024-01-10T09:04:07;101283.28;;;3.25;68.75
33625;BME280;19962;47.820;1.930;2024-01-10T09:06:34;101273.44;;;3.24;68.74
33625;BME280;19962;47.820;1.930;2024-01-10T09:09:01;101283.44;;;3.23;68.78
33625;BME280;19962;47.820;1.930;2024-01-10T09:11:28;101281.41;;;3.25;68.73
33625;BME280;19962;47.820;1.930;2024-01-10T09:13:54;101287.84;;;3.24;68.83
33625;BME280;19962;47.820;1.930;2024-01-10T09:16:20;101283.78;;;3.28;68.96
33625;BME280;19962;47.820;1.930;2024-01-10T09:18:47;101282.56;;;3.23;68.91
33625;BME280;19962;47.820;1.930;2024-01-10T09:21:15;101288.88;;;3.31;68.85
33625;BME280;19962;47.820;1.930;2024-01-10T09:23:44;101286.00;;;3.33;68.59
33625;BME280;19962;47.820;1.930;2024-01-10T09:26:10;101281.75;;;3.38;68.62
33625;BME280;19962;47.820;1.930;2024-01-10T09:28:36;101287.06;;;3.48;68.14
33625;BME280;19962;47.820;1.930;2024-01-10T09:31:03;101294.88;;;3.51;68.24
33625;BME280;19962;47.820;1.930;2024-01-10T09:33:29;101292.00;;;3.68;67.69
33625;BME280;19962;47.820;1.930;2024-01-10T09:35:55;101290.78;;;3.63;67.53
33625;BME280;19962;47.820;1.930;2024-01-10T09:38:21;101287.25;;;3.62;67.57
33625;BME280;19962;47.820;1.930;2024-01-10T09:40:47;101288.91;;;3.55;67.72
33625;BME280;19962;47.820;1.930;2024-01-10T09:43:13;101296.19;;;3.39;68.18
33625;BME280;19962;47.820;1.930;2024-01-10T09:45:47;101292.81;;;3.53;67.94
33625;BME280;19962;47.820;1.930;2024-01-10T09:48:14;101299.44;;;3.50;67.95
33625;BME280;19962;47.820;1.930;2024-01-10T09:50:41;101294.31;;;3.47;68.00
33625;BME280;19962;47.820;1.930;2024-01-10T09:53:07;101309.97;;;3.53;68.11
33625;BME280;19962;47.820;1.930;2024-01-10T09:55:38;101308.25;;;3.60;67.73
33625;BME280;19962;47.820;1.930;2024-01-10T09:58:06;101313.38;;;3.71;67.46
33625;BME280;19962;47.820;1.930;2024-01-10T10:00:34;101318.97;;;3.78;67.18
33625;BME280;19962;47.820;1.930;2024-01-10T10:03:07;101309.47;;;3.66;66.73
33625;BME280;19962;47.820;1.930;2024-01-10T10:05:33;101306.72;;;3.58;67.19
33625;BME280;19962;47.820;1.930;2024-01-10T10:08:00;101297.94;;;3.56;67.57
33625;BME280;19962;47.820;1.930;2024-01-10T10:10:26;101303.53;;;3.70;67.47
33625;BME280;19962;47.820;1.930;2024-01-10T10:12:54;101303.19;;;3.81;67.18
33625;BME280;19962;47.820;1.930;2024-01-10T10:15:24;101305.94;;;3.89;66.84
33625;BME280;19962;47.820;1.930;2024-01-10T10:17:53;101300.50;;;3.81;66.94
33625;BME280;19962;47.820;1.930;2024-01-10T10:20:28;101304.41;;;3.87;66.99
33625;BME280;19962;47.820;1.930;2024-01-10T10:23:06;101292.69;;;4.02;66.64
33625;BME280;19962;47.820;1.930;2024-01-10T10:25:34;101293.34;;;4.04;66.62
33625;BME280;19962;47.820;1.930;2024-01-10T10:28:02;101288.59;;;4.14;66.31
33625;BME280;19962;47.820;1.930;2024-01-10T10:30:28;101298.78;;;4.20;66.34
33625;BME280;19962;47.820;1.930;2024-01-10T10:32:56;101299.81;;;4.19;66.42
33625;BME280;19962;47.820;1.930;2024-01-10T10:35:22;101295.22;;;4.12;66.06
33625;BME280;19962;47.820;1.930;2024-01-10T10:37:50;101298.63;;;4.06;66.28
33625;BME280;19962;47.820;1.930;2024-01-10T10:40:17;101293.88;;;4.08;66.68
33625;BME280;19962;47.820;1.930;2024-01-10T10:42:48;101293.69;;;4.17;66.38
33625;BME280;19962;47.820;1.930;2024-01-10T10:45:17;101286.94;;;3.97;66.09
33625;BME280;19962;47.820;1.930;2024-01-10T10:47:45;101294.22;;;3.89;66.47
33625;BME280;19962;47.820;1.930;2024-01-10T10:50:13;101286.41;;;3.94;66.88
33625;BME280;19962;47.820;1.930;2024-01-10T10:52:45;101285.03;;;3.90;66.45
33625;BME280;19962;47.820;1.930;2024-01-10T10:55:16;101283.34;;;3.97;66.57
33625;BME280;19962;47.820;1.930;2024-01-10T10:57:47;101277.06;;;4.12;66.38
33625;BME280;19962;47.820;1.930;2024-01-10T11:00:18;101281.47;;;4.13;66.24
33625;BME280;19962;47.820;1.930;2024-01-10T11:02:45;101266.03;;;3.98;66.15
33625;BME280;19962;47.820;1.930;2024-01-10T11:05:11;101270.44;;;4.07;65.90
33625;BME280;19962;47.820;1.930;2024-01-10T11:07:42;101275.53;;;4.10;65.98
33625;BME280;19962;47.820;1.930;2024-01-10T11:10:13;101269.56;;;4.30;65.66
33625;BME280;19962;47.820;1.930;2024-01-10T11:23:56;101263.81;;;4.33;65.25
33625;BME280;19962;47.820;1.930;2024-01-10T11:26:23;101266.13;;;4.44;64.76
33625;BME280;19962;47.820;1.930;2024-01-10T11:28:51;101263.38;;;4.60;64.90
33625;BME280;19962;47.820;1.930;2024-01-10T11:31:31;101260.22;;;4.87;64.58
33625;BME280;19962;47.820;1.930;2024-01-10T11:33:58;101260.03;;;4.97;63.95
33625;BME280;19962;47.820;1.930;2024-01-10T11:36:24;101254.63;;;4.89;63.65
33625;BME280;19962;47.820;1.930;2024-01-10T11:38:54;101257.03;;;4.84;63.81
33625;BME280;19962;47.820;1.930;2024-01-10T11:41:26;101250.44;;;4.70;64.01
33625;BME280;19962;47.820;1.930;2024-01-10T11:46:47;101252.69;;;4.51;64.39
33625;BME280;19962;47.820;1.930;2024-01-10T11:49:18;101246.78;;;4.39;65.16
33625;BME280;19962;47.820;1.930;2024-01-10T11:51:57;101249.31;;;4.49;64.96
33625;BME280;19962;47.820;1.930;2024-01-10T11:54:43;101242.13;;;4.64;64.72
33625;BME280;19962;47.820;1.930;2024-01-10T11:57:22;101246.72;;;4.63;64.70
33625;BME280;19962;47.820;1.930;2024-01-10T11:59:57;101244.41;;;4.36;64.73
33625;BME280;19962;47.820;1.930;2024-01-10T12:02:26;101239.81;;;4.45;65.24
33625;BME280;19962;47.820;1.930;2024-01-10T12:04:54;101231.19;;;4.41;65.13
33625;BME280;19962;47.820;1.930;2024-01-10T12:07:21;101216.25;;;4.37;64.91
33625;BME280;19962;47.820;1.930;2024-01-10T12:09:48;101230.19;;;4.34;65.07
33625;BME280;19962;47.820;1.930;2024-01-10T12:12:15;101230.97;;;4.51;64.82
33625;BME280;19962;47.820;1.930;2024-01-10T12:14:42;101224.78;;;4.65;64.49
33625;BME280;19962;47.820;1.930;2024-01-10T12:17:10;101220.38;;;4.72;64.38
33625;BME280;19962;47.820;1.930;2024-01-10T12:19:36;101219.97;;;4.83;64.13
33625;BME280;19962;47.820;1.930;2024-01-10T12:22:03;101219.56;;;4.94;63.80
33625;BME280;19962;47.820;1.930;2024-01-10T12:24:31;101208.16;;;4.98;63.78
33625;BME280;19962;47.820;1.930;2024-01-10T12:26:57;101215.34;;;4.91;63.51
33625;BME280;19962;47.820;1.930;2024-01-10T12:29:23;101218.75;;;4.85;63.56
33625;BME280;19962;47.820;1.930;2024-01-10T12:31:51;101219.94;;;4.91;63.63
33625;BME280;19962;47.820;1.930;2024-01-10T12:34:17;101215.38;;;4.83;63.99
33625;BME280;19962;47.820;1.930;2024-01-10T12:36:43;101218.84;;;4.69;64.30
33625;BME280;19962;47.820;1.930;2024-01-10T12:39:11;101219.81;;;4.76;64.75
33625;BME280;19962;47.820;1.930;2024-01-10T12:41:37;101220.81;;;4.83;64.30
33625;BME280;19962;47.820;1.930;2024-01-10T12:44:04;101212.84;;;4.82;64.35
33625;BME280;19962;47.820;1.930;2024-01-10T12:46:32;101212.66;;;4.83;64.43
33625;BME280;19962;47.820;1.930;2024-01-10T12:51:29;101207.19;;;4.91;64.11
33625;BME280;19962;47.820;1.930;2024-01-10T12:53:56;101187.66;;;4.88;64.04
33625;BME280;19962;47.820;1.930;2024-01-10T12:56:24;101187.84;;;4.86;64.07
33625;BME280;19962;47.820;1.930;2024-01-10T12:58:50;101191.22;;;4.88;63.85
33625;BME280;19962;47.820;1.930;2024-01-10T13:01:16;101189.56;;;4.79;64.14
33625;BME280;19962;47.820;1.930;2024-01-10T13:03:43;101188.16;;;4.91;63.94
33625;BME280;19962;47.820;1.930;2024-01-10T13:06:09;101186.22;;;5.00;63.34
33625;BME280;19962;47.820;1.930;2024-01-10T13:08:36;101172.09;;;5.04;63.37
33625;BME280;19962;47.820;1.930;2024-01-10T13:11:03;101190.75;;;5.07;63.32
33625;BME280;19962;47.820;1.930;2024-01-10T13:13:35;101181.00;;;5.21;63.09
33625;BME280;19962;47.820;1.930;2024-01-10T13:16:02;101175.19;;;5.24;62.78